Time;durP1;ratioP1;P1;durP2;ratioP2;P2;SDS_P1;SDS_P2;PMS_P1;PMS_P2;Temp;Humidity;BMP_temperature;BMP_pressure;BME280_temperature;BME280_humidity;BME280_pressure;Samples;Min_cycle;Max_cycle;Signal;HPM_P1;HPM_P2
2023/05/19 00:00:56;;;;;;;;;;;;;;;14.92;78.53;99796.59;4861222;29;20482;-85
2023/05/19 00:03:23;;;;;;;;;;;;;;;14.93;78.41;99799.03;4860662;29;20319;-83
2023/05/19 00:05:52;;;;;;;;;;;;;;;14.98;78.26;99801.00;4860414;29;19928;-84
2023/05/19 00:08:19;;;;;;;;;;;;;;;15.01;78.06;99800.47;4861289;29;19928;-83
2023/05/19 00:10:46;;;;;;;;;;;;;;;15.00;77.92;99803.47;4860103;29;19932;-82
2023/05/19 00:13:13;;;;;;;;;;;;;;;14.93;78.10;99803.66;4860472;29;19928;-83
2023/05/19 00:15:40;;;;;;;;;;;;;;;14.94;78.14;99803.41;4859799;29;19935;-82
2023/05/19 00:18:07;;;;;;;;;;;;;;;14.93;77.96;99804.47;4860977;29;19928;-82
2023/05/19 00:20:36;;;;;;;;;;;;;;;14.97;78.03;99810.22;4860876;29;19963;-82
2023/05/19 00:23:03;;;;;;;;;;;;;;;15.00;77.85;99820.59;4860410;29;20308;-83
2023/05/19 00:25:30;;;;;;;;;;;;;;;14.94;77.48;99818.91;4861445;29;19928;-84
2023/05/19 00:27:58;;;;;;;;;;;;;;;14.97;77.39;99826.53;4859190;29;19928;-84
2023/05/19 00:30:25;;;;;;;;;;;;;;;14.98;77.12;99821.91;4843886;29;20345;-84
2023/05/19 00:32:52;;;;;;;;;;;;;;;14.93;77.08;99828.94;4861601;29;19928;-83
2023/05/19 00:35:19;;;;;;;;;;;;;;;14.87;77.15;99837.28;4860487;29;20384;-83
2023/05/19 00:37:47;;;;;;;;;;;;;;;14.84;77.27;99832.38;4858954;29;20404;-81
2023/05/19 00:40:14;;;;;;;;;;;;;;;14.81;77.41;99838.28;4858839;29;19967;-84
2023/05/19 00:42:41;;;;;;;;;;;;;;;14.73;77.60;99834.09;4859592;29;19931;-84
2023/05/19 00:45:08;;;;;;;;;;;;;;;14.64;77.96;99835.63;4844544;29;20448;-84
2023/05/19 00:47:35;;;;;;;;;;;;;;;14.62;78.13;99835.88;4859086;29;19940;-83
2023/05/19 00:50:02;;;;;;;;;;;;;;;14.65;77.98;99835.34;4828520;29;19976;-84
2023/05/19 00:52:29;;;;;;;;;;;;;;;14.66;78.04;99838.88;4843781;29;20034;-84
2023/05/19 00:54:56;;;;;;;;;;;;;;;14.65;78.06;99835.34;4858874;29;19932;-82
2023/05/19 00:57:23;;;;;;;;;;;;;;;14.61;78.21;99836.09;4858798;29;19967;-84
2023/05/19 00:59:50;;;;;;;;;;;;;;;14.57;78.42;99838.50;4867155;29;19928;-84
2023/05/19 01:02:16;;;;;;;;;;;;;;;14.55;78.68;99837.94;4845411;29;19931;-84
2023/05/19 01:04:43;;;;;;;;;;;;;;;14.49;78.98;99838.91;4859395;29;20414;-84
2023/05/19 01:07:11;;;;;;;;;;;;;;;14.45;79.29;99845.91;4859594;29;19932;-84
2023/05/19 01:09:39;;;;;;;;;;;;;;;14.43;79.43;99839.91;4859811;29;20033;-84
2023/05/19 01:12:07;;;;;;;;;;;;;;;14.38;79.72;99839.81;4828588;29;19932;-84
2023/05/19 01:14:34;;;;;;;;;;;;;;;14.24;80.01;99842.91;4842805;29;20379;-84
2023/05/19 01:17:08;;;;;;;;;;;;;;;14.19;80.21;99847.44;4842713;29;20759;-84
2023/05/19 01:19:40;;;;;;;;;;;;;;;14.19;80.25;99839.28;4843410;29;19927;-84
2023/05/19 01:22:21;;;;;;;;;;;;;;;14.19;80.32;99847.44;4858645;29;20446;-83
2023/05/19 01:24:58;;;;;;;;;;;;;;;14.19;80.19;99842.81;4858760;29;19935;-84
2023/05/19 01:27:31;;;;;;;;;;;;;;;14.24;79.66;99848.31;4874143;29;19928;-84
2023/05/19 01:30:04;;;;;;;;;;;;;;;14.23;79.58;99848.56;4858551;29;20029;-83
2023/05/19 01:32:31;;;;;;;;;;;;;;;14.19;79.24;99858.28;4860091;29;20405;-84
2023/05/19 01:43:41;;;;;;;;;;;;;;;13.98;79.26;99857.97;5510766;23;19927;-84
2023/05/19 01:46:08;;;;;;;;;;;;;;;13.96;79.39;99856.56;4914464;29;19927;-83
2023/05/19 01:48:36;;;;;;;;;;;;;;;13.89;79.48;99862.13;4914440;29;20394;-84
2023/05/19 01:51:02;;;;;;;;;;;;;;;13.83;79.87;99858.53;4914603;29;19938;-82
2023/05/19 01:53:29;;;;;;;;;;;;;;;13.81;80.02;99857.94;4914143;29;19927;-84
2023/05/19 01:55:58;;;;;;;;;;;;;;;13.81;80.03;99860.66;4914084;29;19978;-82
2023/05/19 01:58:45;;;;;;;;;;;;;;;13.83;80.12;99861.22;4898144;29;19927;-83
2023/05/19 02:01:12;;;;;;;;;;;;;;;13.74;80.27;99865.41;4898358;29;19930;-84
2023/05/19 02:03:42;;;;;;;;;;;;;;;13.68;80.92;99860.97;4895021;29;19927;-81
2023/05/19 02:06:13;;;;;;;;;;;;;;;13.66;81.15;99871.22;4899091;29;19958;-83
2023/05/19 02:08:42;;;;;;;;;;;;;;;13.59;81.69;99868.66;4898738;29;19934;-84
2023/05/19 02:11:12;;;;;;;;;;;;;;;13.49;82.03;99867.66;4915987;29;20042;-83
2023/05/19 02:13:39;;;;;;;;;;;;;;;13.37;82.54;99867.72;4898818;29;19927;-83
2023/05/19 02:16:08;;;;;;;;;;;;;;;13.23;82.80;99875.25;4914963;29;19951;-84
2023/05/19 02:18:35;;;;;;;;;;;;;;;13.08;82.99;99867.66;4883282;29;20013;-83
2023/05/19 02:21:05;;;;;;;;;;;;;;;13.01;83.47;99869.66;4899492;29;19927;-84
2023/05/19 02:23:33;;;;;;;;;;;;;;;12.96;83.84;99883.09;4913490;29;20085;-83
2023/05/19 02:26:00;;;;;;;;;;;;;;;12.93;84.13;99884.41;4898477;29;20054;-84
2023/05/19 02:28:27;;;;;;;;;;;;;;;12.87;84.33;99882.66;4896051;29;19927;-82
2023/05/19 02:30:54;;;;;;;;;;;;;;;12.85;84.47;99890.19;4896994;29;19941;-84
2023/05/19 02:33:23;;;;;;;;;;;;;;;12.87;84.48;99884.56;4897903;29;20034;-83
2023/05/19 02:35:50;;;;;;;;;;;;;;;12.80;84.41;99884.66;4896800;29;19982;-83
2023/05/19 02:38:17;;;;;;;;;;;;;;;12.72;84.08;99890.44;4897033;29;19974;-83
2023/05/19 02:40:44;;;;;;;;;;;;;;;12.66;84.02;99891.38;4896809;29;19931;-83
2023/05/19 02:43:11;;;;;;;;;;;;;;;12.72;83.88;99890.44;4895969;29;19943;-83
2023/05/19 02:45:39;;;;;;;;;;;;;;;12.67;83.47;99890.34;4895506;29;19927;-81
2023/05/19 02:48:06;;;;;;;;;;;;;;;12.60;83.30;99897.75;4891580;29;19952;-83
2023/05/19 02:50:33;;;;;;;;;;;;;;;12.57;82.77;99899.88;4907102;29;19936;-83
2023/05/19 02:53:01;;;;;;;;;;;;;;;12.50;82.24;99906.47;4895225;29;19927;-84
2023/05/19 02:55:28;;;;;;;;;;;;;;;12.43;81.70;99909.31;4880080;29;19969;-84
2023/05/19 02:57:55;;;;;;;;;;;;;;;12.35;81.18;99905.03;4896839;29;19931;-82
2023/05/19 03:00:22;;;;;;;;;;;;;;;12.22;79.99;99902.56;4879159;29;20409;-83
2023/05/19 03:02:51;;;;;;;;;;;;;;;12.03;77.75;99911.84;4879482;29;20395;-83
2023/05/19 03:05:18;;;;;;;;;;;;;;;11.92;76.91;99914.28;4879105;29;19928;-84
2023/05/19 03:07:48;;;;;;;;;;;;;;;11.92;76.38;99921.53;4884167;29;20022;-83
2023/05/19 03:10:16;;;;;;;;;;;;;;;11.96;76.03;99933.56;4896407;29;19975;-81
2023/05/19 03:12:43;;;;;;;;;;;;;;;11.91;75.06;99928.84;4895617;29;20012;-83
2023/05/19 03:15:11;;;;;;;;;;;;;;;11.86;74.47;99936.81;4879637;29;19938;-83
2023/05/19 03:17:39;;;;;;;;;;;;;;;11.87;73.87;99937.63;4894826;29;19931;-84
2023/05/19 03:20:06;;;;;;;;;;;;;;;11.78;72.55;99947.13;4894236;29;19927;-83
2023/05/19 03:22:33;;;;;;;;;;;;;;;11.76;72.00;99938.41;4908845;29;19927;-82
2023/05/19 03:25:01;;;;;;;;;;;;;;;11.75;71.67;99940.28;4902949;29;20687;-83
2023/05/19 03:27:29;;;;;;;;;;;;;;;11.74;71.03;99951.31;4894667;29;19927;-83
2023/05/19 03:29:55;;;;;;;;;;;;;;;11.68;70.56;99953.88;4894427;29;19927;-84
2023/05/19 03:32:23;;;;;;;;;;;;;;;11.66;70.27;99947.88;4897585;29;19979;-84
2023/05/19 03:34:50;;;;;;;;;;;;;;;11.65;69.98;99953.53;4898578;29;19931;-85
2023/05/19 03:37:17;;;;;;;;;;;;;;;11.63;69.70;99951.03;4882775;29;19934;-83
2023/05/19 03:39:44;;;;;;;;;;;;;;;11.68;69.52;99964.72;4882573;29;19983;-84
2023/05/19 03:42:11;;;;;;;;;;;;;;;11.73;69.45;99965.91;4882409;29;19934;-82
2023/05/19 03:44:38;;;;;;;;;;;;;;;11.77;69.31;99973.31;4898327;29;20375;-84
2023/05/19 03:47:05;;;;;;;;;;;;;;;11.85;69.34;99954.09;4897366;29;19928;-83
2023/05/19 03:49:40;;;;;;;;;;;;;;;11.87;69.10;99968.22;4895177;29;19927;-83
2023/05/19 03:52:37;;;;;;;;;;;;;;;11.84;69.13;99976.75;4895783;29;20469;-83
2023/05/19 03:55:20;;;;;;;;;;;;;;;11.87;69.22;99967.38;4555957;29;10000449;-81
2023/05/19 04:00:44;;;;;;;;;;;;;;;11.86;69.32;99976.53;5260809;23;19928;-84
2023/05/19 04:03:13;;;;;;;;;;;;;;;11.80;69.32;99974.75;4845992;29;20049;-82
2023/05/19 04:05:40;;;;;;;;;;;;;;;11.84;69.73;99968.66;4818219;29;19936;-84
2023/05/19 04:08:07;;;;;;;;;;;;;;;11.92;69.68;99981.06;4840009;29;19934;-84
2023/05/19 04:10:36;;;;;;;;;;;;;;;11.95;69.52;99986.03;4845549;29;20019;-82
2023/05/19 04:13:03;;;;;;;;;;;;;;;11.98;69.59;99982.03;4835717;29;20250;-82
2023/05/19 04:15:30;;;;;;;;;;;;;;;12.02;69.82;99975.09;4833541;29;19928;-83
2023/05/19 04:17:57;;;;;;;;;;;;;;;12.17;69.72;99986.31;4838800;29;19984;-83
2023/05/19 04:20:24;;;;;;;;;;;;;;;12.26;69.67;99978.72;4845050;29;19928;-83
2023/05/19 04:22:51;;;;;;;;;;;;;;;12.32;69.62;99975.06;4842850;29;19935;-84
2023/05/19 04:25:18;;;;;;;;;;;;;;;12.23;69.57;99977.28;4872492;29;19944;-84
2023/05/19 04:27:47;;;;;;;;;;;;;;;12.07;69.57;99986.88;4832150;29;19928;-80
2023/05/19 04:30:20;;;;;;;;;;;;;;;12.01;69.97;99978.88;4851310;29;19935;-84
2023/05/19 04:32:52;;;;;;;;;;;;;;;12.07;70.09;99986.06;4834281;29;19932;-83
2023/05/19 04:35:19;;;;;;;;;;;;;;;12.16;69.89;99986.56;4851904;29;20476;-82
2023/05/19 04:37:47;;;;;;;;;;;;;;;12.21;69.79;99984.00;4842399;29;19953;-82
2023/05/19 04:40:19;;;;;;;;;;;;;;;12.27;69.76;99983.88;4823294;29;20125;-82
2023/05/19 04:42:48;;;;;;;;;;;;;;;12.35;69.32;99982.72;4833088;29;19982;-83
2023/05/19 04:45:15;;;;;;;;;;;;;;;12.35;68.95;99983.53;4855858;29;20422;-82
2023/05/19 04:47:47;;;;;;;;;;;;;;;12.28;68.88;99992.81;4838199;29;19928;-84
2023/05/19 04:50:23;;;;;;;;;;;;;;;12.24;68.67;99989.75;4847257;29;19931;-83
2023/05/19 04:52:51;;;;;;;;;;;;;;;12.14;68.73;99995.72;4822235;29;20363;-82
2023/05/19 04:55:20;;;;;;;;;;;;;;;12.13;68.80;99985.97;4827384;29;20403;-89
2023/05/19 04:57:48;;;;;;;;;;;;;;;12.14;68.89;99995.72;4847487;29;20678;-88
2023/05/19 05:00:16;;;;;;;;;;;;;;;12.11;68.91;99988.06;4826049;29;20446;-84
2023/05/19 05:02:57;;;;;;;;;;;;;;;11.98;69.27;99988.28;4855292;29;20360;-85
2023/05/19 05:05:26;;;;;;;;;;;;;;;11.90;69.83;99997.53;4839839;29;20419;-85
2023/05/19 05:07:57;;;;;;;;;;;;;;;11.81;70.08;99992.63;4840545;29;19929;-84
2023/05/19 05:10:26;;;;;;;;;;;;;;;11.80;70.52;99989.09;4840380;29;19929;-85
2023/05/19 05:12:53;;;;;;;;;;;;;;;11.68;71.08;99997.16;4840590;29;20031;-85
2023/05/19 05:15:21;;;;;;;;;;;;;;;11.71;71.39;99996.69;4840380;29;19928;-85
2023/05/19 05:17:49;;;;;;;;;;;;;;;11.78;71.37;100004.72;4840801;29;19935;-85
2023/05/19 05:20:18;;;;;;;;;;;;;;;11.73;71.56;100009.19;4841001;29;20396;-84
2023/05/19 05:22:45;;;;;;;;;;;;;;;11.70;71.90;100005.88;4844285;29;19975;-86
2023/05/19 05:25:13;;;;;;;;;;;;;;;11.62;72.16;100014.31;4842609;29;19985;-84
2023/05/19 05:27:41;;;;;;;;;;;;;;;11.63;72.72;100010.53;4840267;29;20027;-85
2023/05/19 05:30:08;;;;;;;;;;;;;;;11.68;72.72;100015.25;4855709;29;20457;-84
2023/05/19 05:32:36;;;;;;;;;;;;;;;11.73;72.70;100023.53;4855427;29;19928;-85
2023/05/19 05:35:11;;;;;;;;;;;;;;;11.71;72.83;100017.50;4838927;29;20388;-84
2023/05/19 05:37:39;;;;;;;;;;;;;;;11.66;72.96;100010.06;4854654;29;20412;-85
2023/05/19 05:40:06;;;;;;;;;;;;;;;11.62;73.36;100025.13;4855700;29;19953;-84
2023/05/19 05:42:34;;;;;;;;;;;;;;;11.64;73.48;100025.69;4840294;29;19977;-85
2023/05/19 05:45:02;;;;;;;;;;;;;;;11.61;73.65;100020.75;4825363;29;20341;-85
2023/05/19 05:47:30;;;;;;;;;;;;;;;11.55;73.79;100027.06;4840590;29;19956;-85
2023/05/19 05:50:01;;;;;;;;;;;;;;;11.45;73.84;100035.69;4841483;29;19928;-84
2023/05/19 05:52:29;;;;;;;;;;;;;;;11.47;74.13;100027.38;4810214;29;20075;-85
2023/05/19 05:54:58;;;;;;;;;;;;;;;11.49;74.17;100036.06;4825409;29;19986;-85
2023/05/19 05:57:25;;;;;;;;;;;;;;;11.52;74.18;100034.78;4839892;29;19928;-85
2023/05/19 05:59:52;;;;;;;;;;;;;;;11.58;74.13;100042.84;4840259;29;19934;-84
2023/05/19 06:02:20;;;;;;;;;;;;;;;11.61;73.81;100036.97;4841127;29;19938;-85
2023/05/19 06:07:44;;;;;;;;;;;;;;;11.56;73.64;100041.41;4842968;29;19992;-84
2023/05/19 06:10:42;;;;;;;;;;;;;;;11.56;73.80;100039.53;4856852;29;19981;-88
2023/05/19 06:13:21;;;;;;;;;;;;;;;11.60;73.61;100046.13;4844644;29;19981;-87
2023/05/19 06:15:51;;;;;;;;;;;;;;;11.63;73.57;100047.56;4857343;29;19936;-86
2023/05/19 06:18:25;;;;;;;;;;;;;;;11.69;73.43;100046.66;4513727;29;10000948;-86
2023/05/19 06:20:53;;;;;;;;;;;;;;;11.74;73.22;100040.56;4869516;29;19929;-86
2023/05/19 06:23:22;;;;;;;;;;;;;;;11.72;73.24;100040.78;4858347;29;19962;-87
2023/05/19 06:44:10;;;;;;;;;;;;;;;12.29;72.32;100048.63;4881802;23;19928;-88
2023/05/19 06:46:37;;;;;;;;;;;;;;;12.36;72.14;100042.03;4854584;29;19959;-85
2023/05/19 06:49:04;;;;;;;;;;;;;;;12.44;71.79;100050.91;4872941;29;19932;-86
2023/05/19 06:51:36;;;;;;;;;;;;;;;12.40;71.43;100060.53;4857914;29;20393;-84
2023/05/19 06:54:04;;;;;;;;;;;;;;;12.48;71.11;100052.91;4842571;29;19932;-85
2023/05/19 06:56:56;;;;;;;;;;;;;;;12.57;70.76;100064.22;4875894;29;20032;-82
2023/05/19 06:59:23;;;;;;;;;;;;;;;12.72;70.67;100056.47;4874248;29;20396;-87
2023/05/19 07:01:50;;;;;;;;;;;;;;;12.99;70.18;100051.47;4853820;29;19928;-86
2023/05/19 07:04:18;;;;;;;;;;;;;;;13.19;69.34;100055.69;4866075;29;19928;-81
2023/05/19 07:06:45;;;;;;;;;;;;;;;13.34;68.92;100058.81;4868023;29;19928;-82
2023/05/19 07:09:12;;;;;;;;;;;;;;;13.49;68.18;100054.75;4877995;29;19928;-82
2023/05/19 07:11:39;;;;;;;;;;;;;;;13.46;66.49;100061.47;4870913;29;19934;-83
2023/05/19 07:14:07;;;;;;;;;;;;;;;13.50;66.01;100056.44;4873258;29;19928;-84
2023/05/19 07:16:34;;;;;;;;;;;;;;;13.62;65.46;100057.22;4857176;29;19944;-83
2023/05/19 07:25:47;;;;;;;;;;;;;;;14.13;63.29;100066.41;4836964;29;20106;-84
2023/05/19 07:28:15;;;;;;;;;;;;;;;14.08;63.11;100071.75;4831437;29;20064;-84
2023/05/19 07:30:42;;;;;;;;;;;;;;;14.12;63.12;100059.31;4831865;29;19962;-83
2023/05/19 07:33:09;;;;;;;;;;;;;;;14.09;63.03;100063.34;4834799;29;19977;-83
2023/05/19 07:35:36;;;;;;;;;;;;;;;14.16;63.12;100068.63;4831830;29;19928;-84
2023/05/19 07:38:06;;;;;;;;;;;;;;;14.03;62.72;100068.91;4840558;29;19932;-84
2023/05/19 07:40:33;;;;;;;;;;;;;;;13.94;62.88;100068.47;4832433;29;19939;-83
2023/05/19 07:43:00;;;;;;;;;;;;;;;14.00;62.94;100074.81;4829657;29;19940;-83
2023/05/19 07:45:27;;;;;;;;;;;;;;;13.88;62.18;100064.81;4820182;29;19928;-83
2023/05/19 07:48:12;;;;;;;;;;;;;;;13.75;62.89;100065.09;4829088;29;19986;-84
2023/05/19 07:50:39;;;;;;;;;;;;;;;14.03;63.04;100058.88;4821534;29;19960;-84
2023/05/19 07:53:07;;;;;;;;;;;;;;;14.18;62.92;100066.50;4840874;29;20031;-84
2023/05/19 07:55:36;;;;;;;;;;;;;;;14.22;62.44;100062.22;4831116;29;20801;-83
2023/05/19 07:58:03;;;;;;;;;;;;;;;14.40;62.43;100060.38;4875468;23;20026;-85
2023/05/19 08:00:30;;;;;;;;;;;;;;;14.47;62.44;100061.03;4864882;29;20619;-86
2023/05/19 08:02:58;;;;;;;;;;;;;;;14.55;62.26;100063.38;4875177;29;19933;-86
2023/05/19 08:05:26;;;;;;;;;;;;;;;14.76;61.46;100070.00;4875200;29;19974;-86
2023/05/19 08:07:53;;;;;;;;;;;;;;;14.79;59.82;100055.94;4879196;29;19932;-85
2023/05/19 08:10:20;;;;;;;;;;;;;;;14.83;59.61;100061.69;4860845;29;20569;-84
2023/05/19 08:12:47;;;;;;;;;;;;;;;14.92;59.23;100062.94;4879015;29;19927;-84
2023/05/19 08:15:15;;;;;;;;;;;;;;;15.10;58.78;100064.56;4860980;29;19932;-84
2023/05/19 08:17:44;;;;;;;;;;;;;;;15.01;58.19;100061.44;4878140;29;19932;-87
2023/05/19 08:20:11;;;;;;;;;;;;;;;15.16;58.30;100063.56;4876023;29;19935;-86
2023/05/19 08:22:38;;;;;;;;;;;;;;;15.08;56.86;100064.00;4878316;29;19931;-87
2023/05/19 08:25:06;;;;;;;;;;;;;;;15.03;56.80;100058.47;4858259;29;20391;-85
2023/05/19 08:27:33;;;;;;;;;;;;;;;15.17;56.77;100066.03;4860020;29;19935;-87
2023/05/19 08:30:03;;;;;;;;;;;;;;;15.57;56.36;100067.72;4839659;29;19943;-85
2023/05/19 08:32:30;;;;;;;;;;;;;;;15.68;54.84;100063.22;4855147;29;20280;-87
2023/05/19 08:34:57;;;;;;;;;;;;;;;15.84;54.74;100072.41;4857582;29;19927;-88
2023/05/19 08:37:24;;;;;;;;;;;;;;;16.18;54.27;100059.50;4844221;29;19947;-86
2023/05/19 08:39:51;;;;;;;;;;;;;;;16.55;53.92;100066.94;4860485;29;19966;-88
2023/05/19 08:42:18;;;;;;;;;;;;;;;16.52;52.46;100061.19;4859780;29;19931;-88
2023/05/19 08:44:45;;;;;;;;;;;;;;;16.37;53.00;100068.13;4860197;29;20027;-87
2023/05/19 08:47:12;;;;;;;;;;;;;;;16.18;52.68;100073.09;4858255;29;19956;-86
2023/05/19 08:49:46;;;;;;;;;;;;;;;16.23;53.06;100072.34;4859582;29;20386;-86
2023/05/19 09:03:01;;;;;;;;;;;;;;;18.65;45.13;100061.81;4922008;23;19950;-88
2023/05/19 09:05:45;;;;;;;;;;;;;;;19.31;43.61;100063.72;4834212;29;19968;-86
2023/05/19 09:08:12;;;;;;;;;;;;;;;18.28;44.08;100062.81;4822673;29;19929;-88
2023/05/19 09:10:40;;;;;;;;;;;;;;;18.31;44.70;100059.56;4822855;29;20069;-85
2023/05/19 09:13:07;;;;;;;;;;;;;;;18.42;43.94;100063.97;4823264;29;19935;-84
2023/05/19 09:15:35;;;;;;;;;;;;;;;19.25;42.44;100060.16;4825091;29;20411;-85
2023/05/19 09:18:07;;;;;;;;;;;;;;;19.70;41.49;100066.66;4822120;29;19928;-84
2023/05/19 09:20:40;;;;;;;;;;;;;;;20.18;39.03;100055.19;4820384;29;19929;-84
2023/05/19 09:23:10;;;;;;;;;;;;;;;20.38;37.97;100051.50;4823652;29;19932;-81
2023/05/19 09:25:37;;;;;;;;;;;;;;;20.21;37.62;100060.13;4818249;29;19929;-81
2023/05/19 09:28:04;;;;;;;;;;;;;;;20.47;37.91;100050.63;4819563;29;20297;-82
2023/05/19 09:30:31;;;;;;;;;;;;;;;21.35;36.47;100048.81;4805144;29;19971;-82
2023/05/19 09:32:58;;;;;;;;;;;;;;;22.25;35.18;100036.19;4820819;29;19936;-82
2023/05/19 09:35:25;;;;;;;;;;;;;;;21.49;33.14;100051.69;4805218;29;19993;-82
2023/05/19 09:37:51;;;;;;;;;;;;;;;20.90;33.96;100052.81;4821413;29;20389;-83
2023/05/19 09:40:18;;;;;;;;;;;;;;;20.19;33.73;100046.69;4821725;29;19928;-83
2023/05/19 09:42:47;;;;;;;;;;;;;;;20.66;34.19;100049.97;4805088;29;19933;-83
2023/05/19 09:45:15;;;;;;;;;;;;;;;20.76;31.58;100045.25;4822345;29;19935;-81
2023/05/19 09:47:42;;;;;;;;;;;;;;;20.35;32.79;100042.75;4821830;29;19929;-81
2023/05/19 09:50:10;;;;;;;;;;;;;;;20.25;32.86;100042.81;4808743;29;20350;-82
2023/05/19 09:53:05;;;;;;;;;;;;;;;21.29;32.72;100047.19;4874194;23;19954;-81
2023/05/19 09:55:33;;;;;;;;;;;;;;;22.01;32.15;100047.22;4821444;29;19939;-82
2023/05/19 09:58:02;;;;;;;;;;;;;;;21.81;30.24;100037.31;4839364;29;20436;-82
2023/05/19 10:00:51;;;;;;;;;;;;;;;;;;;;;
2023/05/19 10:03:45;;;;;;;;;;;;;;;22.86;28.98;100041.84;4839709;29;20302;-83
2023/05/19 10:15:33;;;;;;;;;;;;;;;23.10;30.25;100039.00;5279901;23;19927;-81
2023/05/19 10:18:21;;;;;;;;;;;;;;;22.92;30.24;100035.97;4867038;29;19927;-83
2023/05/19 10:21:02;;;;;;;;;;;;;;;22.85;30.53;100049.28;4858835;29;19934;-83
2023/05/19 10:23:29;;;;;;;;;;;;;;;22.43;29.41;100033.72;4855676;29;20071;-82
2023/05/19 10:28:51;;;;;;;;;;;;;;;21.67;29.98;100035.56;4854286;29;20343;-83
2023/05/19 10:31:21;;;;;;;;;;;;;;;22.04;30.49;100034.81;4855348;29;19928;-80
2023/05/19 10:34:07;;;;;;;;;;;;;;;22.59;30.20;100029.66;4858257;29;19971;-82
2023/05/19 10:37:08;;;;;;;;;;;;;;;23.26;29.93;100031.28;4860428;29;19928;-87
2023/05/19 10:39:35;;;;;;;;;;;;;;;22.64;29.31;100026.00;4840578;29;19928;-87
2023/05/19 10:42:21;;;;;;;;;;;;;;;22.72;30.01;100028.88;4854123;29;19928;-84
2023/05/19 10:45:09;;;;;;;;;;;;;;;22.71;30.15;100029.16;4847196;29;20383;-82
2023/05/19 10:47:36;;;;;;;;;;;;;;;22.21;30.02;100034.34;4849272;29;19952;-82
2023/05/19 10:50:03;;;;;;;;;;;;;;;21.79;29.95;100030.47;4853596;29;19932;-82
2023/05/19 10:52:38;;;;;;;;;;;;;;;21.99;30.65;100032.16;4861527;29;19928;-82
2023/05/19 10:55:47;;;;;;;;;;;;;;;22.58;30.16;100028.00;4812595;29;19940;-83
2023/05/19 10:59:02;;;;;;;;;;;;;;;22.85;29.48;100032.78;4850200;29;19928;-83
2023/05/19 11:01:33;;;;;;;;;;;;;;;23.29;29.50;100025.16;4948021;23;19927;-82
2023/05/19 11:04:03;;;;;;;;;;;;;;;23.47;29.49;100026.16;4885171;29;19927;-82
2023/05/19 11:06:36;;;;;;;;;;;;;;;23.49;28.64;100032.19;4895449;29;19927;-82
2023/05/19 11:09:14;;;;;;;;;;;;;;;22.61;29.16;100018.31;4891413;29;19935;-84
2023/05/19 11:11:53;;;;;;;;;;;;;;;22.74;29.68;100020.31;4885272;29;19934;-83
2023/05/19 11:14:32;;;;;;;;;;;;;;;23.32;29.18;100027.28;4895804;29;19927;-83
2023/05/19 11:16:59;;;;;;;;;;;;;;;23.38;28.71;100009.56;4868220;29;19974;-84
2023/05/19 11:19:30;;;;;;;;;;;;;;;22.91;28.81;100025.25;4884718;29;19928;-84
2023/05/19 11:22:11;;;;;;;;;;;;;;;22.47;29.03;100016.34;4885361;29;19934;-83
2023/05/19 11:24:39;;;;;;;;;;;;;;;22.14;29.26;100020.13;4863070;29;20022;-83
2023/05/19 11:27:25;;;;;;;;;;;;;;;21.68;29.49;100018.00;4872613;29;19932;-83
2023/05/19 11:29:52;;;;;;;;;;;;;;;20.99;30.45;100020.91;4872779;29;19988;-85
2023/05/19 11:32:20;;;;;;;;;;;;;;;20.55;30.76;100022.63;4882167;29;19928;-83
2023/05/19 11:34:48;;;;;;;;;;;;;;;20.22;30.90;100026.13;4868912;29;20348;-84
2023/05/19 11:37:15;;;;;;;;;;;;;;;19.60;31.57;100036.53;4880445;29;19927;-83
2023/05/19 11:39:42;;;;;;;;;;;;;;;19.58;32.10;100031.34;4873537;29;19933;-85
2023/05/19 11:42:10;;;;;;;;;;;;;;;19.63;32.20;100023.09;4872252;29;20394;-83
2023/05/19 11:44:40;;;;;;;;;;;;;;;19.79;31.87;100034.03;4856354;29;19927;-84
2023/05/19 11:47:07;;;;;;;;;;;;;;;19.73;32.04;100030.50;4856459;29;20391;-84
2023/05/19 11:49:34;;;;;;;;;;;;;;;19.51;32.12;100032.72;4869963;29;20515;-81
2023/05/19 11:52:02;;;;;;;;;;;;;;;19.67;31.93;100035.19;4876209;29;20292;-82
2023/05/19 11:54:31;;;;;;;;;;;;;;;19.34;31.98;100035.78;4872555;29;19931;-82
2023/05/19 11:57:02;;;;;;;;;;;;;;;19.57;32.25;100037.09;4865197;29;19934;-82
2023/05/19 11:59:33;;;;;;;;;;;;;;;20.07;31.95;100032.50;4852576;29;19928;-81
2023/05/19 12:02:03;;;;;;;;;;;;;;;20.40;31.46;100035.59;4877496;29;19934;-81
2023/05/19 12:04:30;;;;;;;;;;;;;;;20.53;31.44;100022.09;4885431;29;19934;-82
2023/05/19 12:06:58;;;;;;;;;;;;;;;20.71;31.48;100030.72;4875390;29;19939;-82
2023/05/19 12:09:25;;;;;;;;;;;;;;;20.43;30.55;100032.28;4874852;29;19955;-82
2023/05/19 12:11:52;;;;;;;;;;;;;;;20.18;31.56;100034.09;4869252;29;20323;-81
2023/05/19 12:14:19;;;;;;;;;;;;;;;20.40;31.60;100030.13;4854337;29;19956;-81
2023/05/19 12:16:46;;;;;;;;;;;;;;;20.55;31.39;100035.53;4873222;29;19974;-81
2023/05/19 12:19:13;;;;;;;;;;;;;;;20.83;31.47;100027.63;4872190;29;19928;-81
2023/05/19 12:21:40;;;;;;;;;;;;;;;20.91;30.96;100035.22;4864592;29;19928;-81
2023/05/19 12:24:07;;;;;;;;;;;;;;;21.01;30.73;100029.66;4875018;29;19928;-81
2023/05/19 12:26:35;;;;;;;;;;;;;;;20.73;30.74;100023.84;4865419;29;19950;-81
2023/05/19 12:29:06;;;;;;;;;;;;;;;20.48;30.84;100030.31;4875515;29;19927;-81
2023/05/19 12:31:33;;;;;;;;;;;;;;;20.55;30.92;100027.28;4871293;29;19983;-81
2023/05/19 12:34:00;;;;;;;;;;;;;;;20.30;30.82;100031.00;4869978;29;20419;-82
2023/05/19 12:36:27;;;;;;;;;;;;;;;20.12;31.21;100035.22;4863342;29;19998;-83
2023/05/19 12:38:54;;;;;;;;;;;;;;;20.29;30.85;100030.19;4877611;29;19935;-81
2023/05/19 12:41:23;;;;;;;;;;;;;;;20.32;30.77;100032.34;4867670;29;20400;-82
2023/05/19 12:43:50;;;;;;;;;;;;;;;20.49;30.50;100039.38;4877092;29;19983;-82
2023/05/19 12:46:21;;;;;;;;;;;;;;;20.77;30.53;100035.91;4879625;29;20404;-82
2023/05/19 12:48:48;;;;;;;;;;;;;;;20.99;29.93;100040.94;4871508;29;19928;-82
2023/05/19 12:51:18;;;;;;;;;;;;;;;21.15;29.89;100044.34;4873855;29;19928;-81
2023/05/19 12:53:46;;;;;;;;;;;;;;;21.10;29.62;100038.09;4876318;29;19938;-81
2023/05/19 12:56:13;;;;;;;;;;;;;;;21.14;29.54;100039.97;4875063;29;19934;-81
2023/05/19 12:58:41;;;;;;;;;;;;;;;21.22;28.41;100041.25;4877440;29;19927;-82
2023/05/19 13:01:15;;;;;;;;;;;;;;;20.93;28.22;100038.50;4879154;29;20660;-81
2023/05/19 13:03:44;;;;;;;;;;;;;;;21.17;28.66;100036.63;4871113;29;19974;-81
2023/05/19 13:06:11;;;;;;;;;;;;;;;21.48;28.47;100032.78;4879085;29;19927;-80
2023/05/19 13:08:39;;;;;;;;;;;;;;;21.49;28.63;100026.16;4870426;29;19932;-82
2023/05/19 13:11:07;;;;;;;;;;;;;;;21.50;28.49;100030.56;4890912;29;19934;-82
2023/05/19 13:13:34;;;;;;;;;;;;;;;21.36;28.56;100039.44;4873059;29;20036;-81
2023/05/19 13:16:02;;;;;;;;;;;;;;;21.24;28.47;100041.75;4882852;29;19934;-80
2023/05/19 13:18:34;;;;;;;;;;;;;;;21.10;28.19;100027.09;4878470;29;19927;-82
2023/05/19 13:21:01;;;;;;;;;;;;;;;21.44;28.11;100035.28;4878516;29;20382;-81
2023/05/19 13:23:29;;;;;;;;;;;;;;;21.75;27.50;100038.50;4887503;29;20026;-81
2023/05/19 13:25:58;;;;;;;;;;;;;;;21.91;27.08;100030.88;4892654;29;19983;-81
2023/05/19 13:28:25;;;;;;;;;;;;;;;21.75;27.39;100035.75;4874239;29;20524;-81
2023/05/19 13:30:52;;;;;;;;;;;;;;;21.50;27.09;100034.13;4865662;29;19931;-81
2023/05/19 13:33:19;;;;;;;;;;;;;;;21.31;27.13;100033.19;4877666;29;19928;-81
2023/05/19 13:35:46;;;;;;;;;;;;;;;21.39;27.38;100038.88;4876177;29;19928;-81
2023/05/19 13:38:13;;;;;;;;;;;;;;;21.63;27.24;100044.41;4876996;29;19928;-81
2023/05/19 13:40:49;;;;;;;;;;;;;;;21.37;27.50;100032.03;4872838;29;20312;-81
2023/05/19 13:43:18;;;;;;;;;;;;;;;21.15;27.70;100041.59;4868813;29;19994;-81
2023/05/19 13:45:45;;;;;;;;;;;;;;;21.20;28.08;100043.47;4868400;29;19999;-79
2023/05/19 13:48:13;;;;;;;;;;;;;;;20.67;27.62;100040.66;4870251;29;20014;-79
2023/05/19 13:50:41;;;;;;;;;;;;;;;20.48;28.46;100037.72;4882064;29;19961;-80
2023/05/19 13:53:10;;;;;;;;;;;;;;;20.42;28.54;100033.41;4877096;29;19934;-79
2023/05/19 13:55:37;;;;;;;;;;;;;;;20.50;27.67;100038.28;4877727;29;20022;-79